createdAt,value
2019-03-24T00:00:35.143Z,1021.88
2019-03-24T00:01:41.157Z,1021.86
2019-03-24T00:02:37.973Z,1021.94
2019-03-24T00:03:39.351Z,1021.89
2019-03-24T00:04:40.733Z,1021.93
2019-03-24T00:05:42.125Z,1021.94
2019-03-24T00:06:43.517Z,1021.93
2019-03-24T00:07:44.901Z,1021.94
2019-03-24T00:08:46.279Z,1021.96
2019-03-24T00:09:47.663Z,1021.91
2019-03-24T00:10:49.061Z,1021.95
2019-03-24T00:11:50.441Z,1021.92
2019-03-24T00:12:51.825Z,1021.91
2019-03-24T00:13:53.232Z,1021.91
2019-03-24T00:14:54.627Z,1021.89
2019-03-24T00:15:56.016Z,1021.89
2019-03-24T00:16:57.403Z,1021.89
2019-03-24T00:17:58.779Z,1021.88
2019-03-24T00:19:00.123Z,1021.91
2019-03-24T00:20:01.506Z,1021.89
2019-03-24T00:21:02.895Z,1021.91
2019-03-24T00:22:04.286Z,1021.93
2019-03-24T00:23:05.680Z,1021.94
2019-03-24T00:24:07.066Z,1021.91
2019-03-24T00:25:08.444Z,1021.88
2019-03-24T00:26:09.832Z,1021.96
2019-03-24T00:27:11.215Z,1021.95
2019-03-24T00:28:12.605Z,1021.93
2019-03-24T00:29:13.976Z,1021.95
2019-03-24T00:30:15.363Z,1021.94
2019-03-24T00:31:16.749Z,1021.96
2019-03-24T00:32:18.135Z,1021.97
2019-03-24T00:33:19.517Z,1021.96
2019-03-24T00:34:20.906Z,1021.95
2019-03-24T00:35:22.293Z,1021.95
2019-03-24T00:36:23.675Z,1021.98
2019-03-24T00:37:25.057Z,1022.00
2019-03-24T00:38:26.435Z,1021.96
2019-03-24T00:39:27.818Z,1021.98
2019-03-24T00:40:29.212Z,1021.97
2019-03-24T00:41:30.594Z,1021.95
2019-03-24T00:42:31.995Z,1021.94
2019-03-24T00:43:33.379Z,1021.92
2019-03-24T00:44:34.761Z,1021.94
2019-03-24T00:45:37.020Z,1021.92
2019-03-24T00:46:37.498Z,1021.91
2019-03-24T00:47:40.218Z,1021.87
2019-03-24T00:48:41.605Z,1021.93
2019-03-24T00:49:44.286Z,1021.92
2019-03-24T00:50:45.669Z,1021.88
2019-03-24T00:51:47.052Z,1021.92
2019-03-24T00:52:48.436Z,1021.88
2019-03-24T00:53:49.826Z,1021.94
2019-03-24T00:54:51.234Z,1021.89
2019-03-24T00:55:52.620Z,1021.95
2019-03-24T00:56:53.998Z,1021.91
2019-03-24T00:57:55.389Z,1021.91
2019-03-24T00:58:56.771Z,1021.85
2019-03-24T00:59:58.156Z,1021.77
2019-03-24T01:00:59.543Z,1021.81
2019-03-24T01:02:00.916Z,1021.76
2019-03-24T01:03:02.295Z,1021.76
2019-03-24T01:04:03.681Z,1021.73
2019-03-24T01:05:05.071Z,1021.73
2019-03-24T01:06:06.447Z,1021.71
2019-03-24T01:07:07.835Z,1021.74
2019-03-24T01:08:09.215Z,1021.75
2019-03-24T01:09:10.607Z,1021.75
2019-03-24T01:10:11.995Z,1021.76
2019-03-24T01:11:13.381Z,1021.78
2019-03-24T01:12:14.772Z,1021.77
2019-03-24T01:13:16.164Z,1021.77
2019-03-24T01:14:17.556Z,1021.74
2019-03-24T01:15:18.945Z,1021.78
2019-03-24T01:16:20.333Z,1021.79
2019-03-24T01:17:21.712Z,1021.80
2019-03-24T01:18:23.096Z,1021.84
2019-03-24T01:19:24.480Z,1021.83
2019-03-24T01:20:25.864Z,1021.85
2019-03-24T01:21:27.262Z,1021.80
2019-03-24T01:22:28.650Z,1021.85
2019-03-24T01:23:30.027Z,1021.88
2019-03-24T01:24:31.422Z,1021.92
2019-03-24T01:25:32.805Z,1021.90
2019-03-24T01:26:34.188Z,1021.91
2019-03-24T01:27:35.575Z,1021.87
2019-03-24T01:28:36.960Z,1021.84
2019-03-24T01:29:38.345Z,1021.84
2019-03-24T01:30:39.727Z,1021.80
2019-03-24T01:31:41.113Z,1021.79
2019-03-24T01:32:42.499Z,1021.79
2019-03-24T01:33:43.881Z,1021.80
2019-03-24T01:34:45.265Z,1021.81
2019-03-24T01:35:46.649Z,1021.79
2019-03-24T01:36:48.029Z,1021.79
2019-03-24T01:37:49.411Z,1021.77
2019-03-24T01:38:50.793Z,1021.79
2019-03-24T01:39:52.173Z,1021.80
2019-03-24T01:40:53.562Z,1021.79
2019-03-24T01:41:54.948Z,1021.82
2019-03-24T01:42:56.331Z,1021.80
2019-03-24T01:43:57.711Z,1021.81
2019-03-24T01:44:59.091Z,1021.82
2019-03-24T01:46:00.477Z,1021.82
2019-03-24T01:47:01.870Z,1021.77
2019-03-24T01:48:03.244Z,1021.77
2019-03-24T01:49:04.633Z,1021.82
2019-03-24T01:50:06.014Z,1021.78
2019-03-24T01:51:07.397Z,1021.77
2019-03-24T01:52:08.824Z,1021.77
2019-03-24T01:53:10.168Z,1021.78
2019-03-24T01:54:11.564Z,1021.75
2019-03-24T01:55:12.950Z,1021.76
2019-03-24T01:56:14.344Z,1021.79
2019-03-24T01:57:15.730Z,1021.82
2019-03-24T01:58:17.114Z,1021.80
2019-03-24T01:59:18.490Z,1021.77
2019-03-24T02:00:19.885Z,1021.75
2019-03-24T02:01:21.271Z,1021.74
2019-03-24T02:02:22.657Z,1021.74
2019-03-24T02:03:24.053Z,1021.70
2019-03-24T02:04:25.448Z,1021.70
2019-03-24T02:05:26.822Z,1021.65
2019-03-24T02:06:28.211Z,1021.65
2019-03-24T02:07:29.597Z,1021.73
2019-03-24T02:08:30.984Z,1021.70
2019-03-24T02:09:32.372Z,1021.67
2019-03-24T02:10:33.748Z,1021.65
2019-03-24T02:11:35.141Z,1021.64
2019-03-24T02:12:36.525Z,1021.62
2019-03-24T02:13:37.910Z,1021.61
2019-03-24T02:14:39.304Z,1021.55
2019-03-24T02:15:40.686Z,1021.55
2019-03-24T02:16:42.072Z,1021.55
2019-03-24T02:17:43.452Z,1021.55
2019-03-24T02:18:44.833Z,1021.54
2019-03-24T02:19:46.218Z,1021.53
2019-03-24T02:20:47.601Z,1021.49
2019-03-24T02:21:48.978Z,1021.50
2019-03-24T02:22:50.360Z,1021.46
2019-03-24T02:23:51.739Z,1021.51
2019-03-24T02:24:53.126Z,1021.44
2019-03-24T02:25:54.518Z,1021.47
2019-03-24T02:26:55.898Z,1021.54
2019-03-24T02:27:57.293Z,1021.51
2019-03-24T02:28:58.676Z,1021.54
2019-03-24T02:30:00.061Z,1021.54
2019-03-24T02:31:01.438Z,1021.55
2019-03-24T02:32:02.828Z,1021.59
2019-03-24T02:33:04.218Z,1021.58
2019-03-24T02:34:05.602Z,1021.58
2019-03-24T02:35:06.982Z,1021.54
2019-03-24T02:36:08.372Z,1021.56
2019-03-24T02:37:09.762Z,1021.54
2019-03-24T02:38:11.143Z,1021.54
2019-03-24T02:39:12.550Z,1021.51
2019-03-24T02:40:13.924Z,1021.52
2019-03-24T02:41:15.301Z,1021.52
2019-03-24T02:42:16.688Z,1021.53
2019-03-24T02:43:18.064Z,1021.55
2019-03-24T02:44:19.448Z,1021.50
2019-03-24T02:45:20.831Z,1021.51
2019-03-24T02:46:24.582Z,1021.50
2019-03-24T02:47:23.562Z,1021.52
2019-03-24T02:48:24.949Z,1021.51
2019-03-24T02:49:26.365Z,1021.52
2019-03-24T02:50:27.752Z,1021.53
2019-03-24T02:51:29.146Z,1021.54
2019-03-24T02:52:30.543Z,1021.48
2019-03-24T02:53:31.922Z,1021.53
2019-03-24T02:54:33.303Z,1021.52
2019-03-24T02:55:34.684Z,1021.51
2019-03-24T02:56:36.070Z,1021.49
2019-03-24T02:57:37.455Z,1021.49
2019-03-24T02:58:38.844Z,1021.48
2019-03-24T02:59:40.218Z,1021.48
2019-03-24T03:00:41.609Z,1021.52
2019-03-24T03:01:42.998Z,1021.55
2019-03-24T03:02:44.379Z,1021.57
2019-03-24T03:03:45.775Z,1021.55
2019-03-24T03:04:47.155Z,1021.54
2019-03-24T03:05:48.545Z,1021.48
2019-03-24T03:06:49.931Z,1021.51
2019-03-24T03:07:51.303Z,1021.51
2019-03-24T03:08:52.691Z,1021.50
2019-03-24T03:09:54.068Z,1021.52
2019-03-24T03:10:55.452Z,1021.57
2019-03-24T03:11:56.836Z,1021.56
2019-03-24T03:12:58.242Z,1021.49
2019-03-24T03:13:59.609Z,1021.50
2019-03-24T03:15:01.015Z,1021.50
2019-03-24T03:16:02.403Z,1021.46
2019-03-24T03:17:03.779Z,1021.43
2019-03-24T03:18:05.163Z,1021.41
2019-03-24T03:19:06.557Z,1021.42
2019-03-24T03:20:07.941Z,1021.41
2019-03-24T03:21:09.383Z,1021.40
2019-03-24T03:22:10.704Z,1021.43
2019-03-24T03:23:12.087Z,1021.39
2019-03-24T03:24:13.477Z,1021.41
2019-03-24T03:25:14.850Z,1021.37
2019-03-24T03:26:16.239Z,1021.46
2019-03-24T03:27:17.628Z,1021.41
2019-03-24T03:28:19.008Z,1021.44
2019-03-24T03:29:20.386Z,1021.39
2019-03-24T03:30:21.776Z,1021.37
2019-03-24T03:31:23.152Z,1021.40
2019-03-24T03:32:24.557Z,1021.43
2019-03-24T03:33:25.929Z,1021.44
2019-03-24T03:34:27.322Z,1021.42
2019-03-24T03:35:28.733Z,1021.42
2019-03-24T03:36:30.089Z,1021.42
2019-03-24T03:37:31.473Z,1021.36
2019-03-24T03:38:32.850Z,1021.35
2019-03-24T03:39:34.235Z,1021.32
2019-03-24T03:40:35.623Z,1021.26
2019-03-24T03:41:37.003Z,1021.27
2019-03-24T03:42:38.526Z,1021.25
2019-03-24T03:43:39.763Z,1021.24
2019-03-24T03:44:41.139Z,1021.23
2019-03-24T03:45:42.526Z,1021.23
2019-03-24T03:46:52.589Z,1021.25
2019-03-24T03:47:45.259Z,1021.20
2019-03-24T03:48:46.650Z,1021.21
2019-03-24T03:49:48.045Z,1021.15
2019-03-24T03:50:49.412Z,1021.17
2019-03-24T03:51:50.799Z,1021.11
2019-03-24T03:52:52.186Z,1021.14
2019-03-24T03:53:53.571Z,1021.14
2019-03-24T03:54:54.968Z,1021.12
2019-03-24T03:55:56.340Z,1021.13
2019-03-24T03:56:57.725Z,1021.15
2019-03-24T03:57:59.112Z,1021.19
2019-03-24T03:59:00.491Z,1021.23
2019-03-24T04:00:01.887Z,1021.17
2019-03-24T04:01:03.255Z,1021.14
2019-03-24T04:02:04.731Z,1021.16
2019-03-24T04:03:06.135Z,1021.15
2019-03-24T04:04:07.498Z,1021.14
2019-03-24T04:05:08.886Z,1021.18
2019-03-24T04:06:10.272Z,1021.16
2019-03-24T04:07:11.646Z,1021.19
2019-03-24T04:08:13.031Z,1021.20
2019-03-24T04:09:14.422Z,1021.21
2019-03-24T04:10:15.800Z,1021.21
2019-03-24T04:11:17.184Z,1021.23
2019-03-24T04:12:18.565Z,1021.28
2019-03-24T04:13:19.949Z,1021.28
2019-03-24T04:14:21.334Z,1021.28
2019-03-24T04:15:22.719Z,1021.26
2019-03-24T04:16:24.108Z,1021.25
2019-03-24T04:17:25.488Z,1021.21
2019-03-24T04:18:26.873Z,1021.28
2019-03-24T04:19:28.260Z,1021.25
2019-03-24T04:20:29.647Z,1021.27
2019-03-24T04:21:31.030Z,1021.28
2019-03-24T04:22:32.416Z,1021.34
2019-03-24T04:23:33.789Z,1021.30
2019-03-24T04:24:35.183Z,1021.31
2019-03-24T04:25:36.564Z,1021.31
2019-03-24T04:26:37.951Z,1021.32
2019-03-24T04:27:39.340Z,1021.33
2019-03-24T04:28:40.727Z,1021.33
2019-03-24T04:29:42.103Z,1021.35
2019-03-24T04:30:43.490Z,1021.35
2019-03-24T04:31:44.880Z,1021.32
2019-03-24T04:32:46.261Z,1021.32
2019-03-24T04:33:47.640Z,1021.26
2019-03-24T04:34:49.032Z,1021.27
2019-03-24T04:35:50.411Z,1021.22
2019-03-24T04:36:51.786Z,1021.20
2019-03-24T04:37:53.172Z,1021.15
2019-03-24T04:38:54.558Z,1021.18
2019-03-24T04:39:55.942Z,1021.16
2019-03-24T04:40:57.335Z,1021.12
2019-03-24T04:41:58.725Z,1021.15
2019-03-24T04:43:00.098Z,1021.15
2019-03-24T04:44:01.481Z,1021.13
2019-03-24T04:45:02.864Z,1021.13
2019-03-24T04:46:04.247Z,1021.07
2019-03-24T04:47:16.010Z,1021.05
2019-03-24T04:48:07.060Z,1021.08
2019-03-24T04:49:08.446Z,1021.09
2019-03-24T04:50:09.831Z,1021.09
2019-03-24T04:51:11.215Z,1021.14
2019-03-24T04:52:12.603Z,1021.14
2019-03-24T04:53:13.983Z,1021.18
2019-03-24T04:54:15.382Z,1021.16
2019-03-24T04:55:16.753Z,1021.18
2019-03-24T04:56:18.141Z,1021.18
2019-03-24T04:57:19.523Z,1021.17
2019-03-24T04:58:20.914Z,1021.12
2019-03-24T04:59:22.290Z,1021.09
2019-03-24T05:00:23.675Z,1021.08
2019-03-24T05:01:25.058Z,1021.08
2019-03-24T05:02:26.442Z,1021.08
2019-03-24T05:03:27.828Z,1021.11
2019-03-24T05:04:29.212Z,1021.12
2019-03-24T05:05:30.610Z,1021.18
2019-03-24T05:06:31.997Z,1021.24
2019-03-24T05:07:33.384Z,1021.19
2019-03-24T05:08:34.772Z,1021.22
2019-03-24T05:09:36.157Z,1021.26
2019-03-24T05:10:37.542Z,1021.27
2019-03-24T05:11:38.928Z,1021.29
2019-03-24T05:12:40.322Z,1021.32
2019-03-24T05:13:41.710Z,1021.27
2019-03-24T05:14:43.092Z,1021.26
2019-03-24T05:15:44.495Z,1021.26
2019-03-24T05:16:45.886Z,1021.29
2019-03-24T05:17:47.277Z,1021.30
2019-03-24T05:18:48.661Z,1021.29
2019-03-24T05:19:50.043Z,1021.27
2019-03-24T05:20:51.435Z,1021.28
2019-03-24T05:21:52.823Z,1021.26
2019-03-24T05:22:54.206Z,1021.29
2019-03-24T05:23:55.598Z,1021.29
2019-03-24T05:24:56.979Z,1021.28
2019-03-24T05:25:58.374Z,1021.25
2019-03-24T05:26:59.759Z,1021.23
2019-03-24T05:28:01.167Z,1021.21
2019-03-24T05:29:02.542Z,1021.23
2019-03-24T05:30:03.929Z,1021.21
2019-03-24T05:31:05.324Z,1021.23
2019-03-24T05:32:06.711Z,1021.27
2019-03-24T05:33:08.144Z,1021.26
2019-03-24T05:34:09.474Z,1021.25
2019-03-24T05:35:10.869Z,1021.22
2019-03-24T05:36:12.248Z,1021.26
2019-03-24T05:37:13.646Z,1021.28
2019-03-24T05:38:15.034Z,1021.27
2019-03-24T05:39:16.419Z,1021.23
2019-03-24T05:40:17.801Z,1021.27
2019-03-24T05:41:19.193Z,1021.25
2019-03-24T05:42:20.581Z,1021.27
2019-03-24T05:43:21.973Z,1021.25
2019-03-24T05:44:23.360Z,1021.26
2019-03-24T05:45:24.745Z,1021.30
2019-03-24T05:46:26.137Z,1021.26
2019-03-24T05:47:36.644Z,1021.32
2019-03-24T05:48:28.926Z,1021.31
2019-03-24T05:49:30.267Z,1021.30
2019-03-24T05:50:31.655Z,1021.30
2019-03-24T05:51:33.047Z,1021.31
2019-03-24T05:52:34.441Z,1021.26
2019-03-24T05:53:35.822Z,1021.25
2019-03-24T05:54:37.216Z,1021.22
2019-03-24T05:55:38.596Z,1021.17
2019-03-24T05:56:39.985Z,1021.20
2019-03-24T05:57:41.374Z,1021.18
2019-03-24T05:58:42.760Z,1021.22
2019-03-24T05:59:44.141Z,1021.20
2019-03-24T06:00:45.538Z,1021.19
2019-03-24T06:01:46.923Z,1021.15
2019-03-24T06:02:48.312Z,1021.15
2019-03-24T06:03:49.706Z,1021.08
2019-03-24T06:04:51.092Z,1021.08
2019-03-24T06:05:52.482Z,1021.04
2019-03-24T06:06:53.875Z,1021.04
2019-03-24T06:07:55.262Z,1020.97
2019-03-24T06:08:56.649Z,1020.96
2019-03-24T06:09:58.025Z,1020.95
2019-03-24T06:10:59.419Z,1020.94
2019-03-24T06:12:00.813Z,1020.96
2019-03-24T06:13:02.201Z,1020.96
2019-03-24T06:14:03.608Z,1021.01
2019-03-24T06:15:05.004Z,1020.99
2019-03-24T06:16:06.389Z,1021.03
2019-03-24T06:17:07.771Z,1021.02
2019-03-24T06:18:09.173Z,1020.98
2019-03-24T06:19:10.561Z,1020.95
2019-03-24T06:20:11.945Z,1020.98
2019-03-24T06:21:13.337Z,1020.94
2019-03-24T06:22:14.723Z,1020.97
2019-03-24T06:23:16.105Z,1020.99
2019-03-24T06:24:17.496Z,1020.98
2019-03-24T06:25:18.900Z,1020.94
2019-03-24T06:26:20.308Z,1020.95
2019-03-24T06:27:21.700Z,1021.01
2019-03-24T06:28:23.090Z,1021.01
2019-03-24T06:29:24.496Z,1021.06
2019-03-24T06:30:25.888Z,1021.04
2019-03-24T06:31:27.287Z,1021.02
2019-03-24T06:32:28.672Z,1020.99
2019-03-24T06:33:30.061Z,1020.97
2019-03-24T06:34:31.457Z,1020.96
2019-03-24T06:35:32.845Z,1020.96
2019-03-24T06:36:34.235Z,1021.01
2019-03-24T06:37:35.624Z,1021.09
2019-03-24T06:38:37.015Z,1021.12
2019-03-24T06:39:38.411Z,1021.10
2019-03-24T06:40:39.801Z,1021.06
2019-03-24T06:41:41.197Z,1021.12
2019-03-24T06:42:42.593Z,1021.13
2019-03-24T06:43:44.001Z,1021.34
2019-03-24T06:44:45.393Z,1021.58
2019-03-24T06:45:46.783Z,1021.26
2019-03-24T06:46:48.186Z,1021.66
2019-03-24T06:47:57.542Z,1021.56
2019-03-24T06:48:50.912Z,1021.36
2019-03-24T06:49:52.324Z,1021.62
2019-03-24T06:50:53.714Z,1021.73
2019-03-24T06:51:55.104Z,1021.48
2019-03-24T06:52:56.498Z,1021.66
2019-03-24T06:53:57.890Z,1021.39
2019-03-24T06:54:59.285Z,1021.51
2019-03-24T06:56:00.686Z,1021.80
2019-03-24T06:57:02.074Z,1021.40
2019-03-24T06:58:03.466Z,1021.58
2019-03-24T06:59:04.875Z,1021.38
2019-03-24T07:00:06.267Z,1021.38
2019-03-24T07:01:07.658Z,1021.78
2019-03-24T07:02:09.060Z,1021.35
2019-03-24T07:03:10.456Z,1021.43
2019-03-24T07:04:11.846Z,1021.38
2019-03-24T07:05:13.249Z,1021.33
2019-03-24T07:06:14.636Z,1021.34
2019-03-24T07:07:16.036Z,1021.36
2019-03-24T07:08:17.433Z,1021.31
2019-03-24T07:09:18.833Z,1021.40
2019-03-24T07:10:20.219Z,1021.48
2019-03-24T07:11:21.615Z,1021.33
2019-03-24T07:12:23.021Z,1021.46
2019-03-24T07:13:24.411Z,1021.50
2019-03-24T07:14:25.809Z,1021.47
2019-03-24T07:15:27.213Z,1021.53
2019-03-24T07:16:28.608Z,1021.43
2019-03-24T07:17:30.013Z,1021.47
2019-03-24T07:18:31.414Z,1022.08
2019-03-24T07:19:32.818Z,1023.20
2019-03-24T07:20:34.222Z,1023.32
2019-03-24T07:21:35.616Z,1022.60
2019-03-24T07:22:37.024Z,1021.46
2019-03-24T07:23:38.425Z,1021.46
2019-03-24T07:24:39.826Z,1021.58
2019-03-24T07:25:41.231Z,1022.20
2019-03-24T07:26:42.640Z,1024.69
2019-03-24T07:27:44.049Z,1027.03
2019-03-24T07:28:45.465Z,1027.44
2019-03-24T07:29:46.874Z,1027.67
2019-03-24T07:30:48.310Z,1028.02
2019-03-24T07:31:49.684Z,1027.19
2019-03-24T07:32:51.096Z,1028.61
2019-03-24T07:33:52.515Z,1028.84
2019-03-24T07:34:53.921Z,1029.12
2019-03-24T07:35:55.324Z,1028.32
2019-03-24T07:36:56.725Z,1026.61
2019-03-24T07:37:58.131Z,1024.37
2019-03-24T07:38:59.535Z,1023.15
2019-03-24T07:40:00.948Z,1022.33
2019-03-24T07:41:02.362Z,1022.50
2019-03-24T07:42:05.492Z,1022.69
2019-03-24T07:43:05.145Z,1022.88
2019-03-24T07:44:06.549Z,1023.19
2019-03-24T07:45:07.962Z,1022.11
2019-03-24T07:46:09.371Z,1021.67
2019-03-24T07:47:10.788Z,1022.15
2019-03-24T07:48:18.994Z,1023.38
2019-03-24T07:49:13.562Z,1029.96
2019-03-24T07:50:14.968Z,1029.98
2019-03-24T07:51:16.380Z,1029.85
2019-03-24T07:52:17.786Z,1029.77
2019-03-24T07:53:19.196Z,1029.68
2019-03-24T07:54:20.608Z,1029.52
2019-03-24T07:55:22.013Z,1029.88
2019-03-24T07:56:23.428Z,1030.10
2019-03-24T07:57:24.843Z,1029.40
2019-03-24T07:58:26.256Z,1029.56
2019-03-24T07:59:27.663Z,1029.60
2019-03-24T08:00:29.071Z,1030.03
2019-03-24T08:01:30.488Z,1029.26
2019-03-24T08:02:31.915Z,1026.40
2019-03-24T08:03:33.319Z,1029.12
2019-03-24T08:04:34.741Z,1029.60
2019-03-24T08:05:36.153Z,1029.93
2019-03-24T08:06:37.597Z,1030.13
2019-03-24T08:07:39.019Z,1029.86
2019-03-24T08:08:44.182Z,1029.03
2019-03-24T08:09:41.821Z,1029.72
2019-03-24T08:10:43.236Z,1028.04
2019-03-24T08:11:44.652Z,1026.95
2019-03-24T08:12:46.149Z,1030.12
2019-03-24T08:13:53.831Z,1027.80
2019-03-24T08:14:48.824Z,1022.87
2019-03-24T08:15:50.250Z,1022.16
2019-03-24T08:16:51.670Z,1022.21
2019-03-24T08:17:53.088Z,1022.31
2019-03-24T08:18:54.502Z,1023.18
2019-03-24T08:19:55.920Z,1024.48
2019-03-24T08:20:57.336Z,1026.12
2019-03-24T08:21:58.752Z,1026.92
2019-03-24T08:23:00.201Z,1024.52
2019-03-24T08:24:01.632Z,1026.17
2019-03-24T08:25:03.085Z,1024.23
2019-03-24T08:26:04.506Z,1025.41
2019-03-24T08:27:05.925Z,1025.13
2019-03-24T08:28:07.333Z,1023.12
2019-03-24T08:29:08.761Z,1025.61
2019-03-24T08:30:10.186Z,1023.63
2019-03-24T08:31:11.600Z,1022.63
2019-03-24T08:32:13.002Z,1022.56
2019-03-24T08:33:14.416Z,1022.40
2019-03-24T08:34:15.827Z,1022.78
2019-03-24T08:35:17.235Z,1024.20
2019-03-24T08:36:18.647Z,1023.22
2019-03-24T08:37:20.058Z,1023.08
2019-03-24T08:38:21.467Z,1022.54
2019-03-24T08:39:22.881Z,1022.85
2019-03-24T08:40:24.290Z,1023.43
2019-03-24T08:41:25.699Z,1022.66
2019-03-24T08:42:27.116Z,1022.65
2019-03-24T08:43:28.521Z,1022.47
2019-03-24T08:44:29.932Z,1022.44
2019-03-24T08:45:31.344Z,1022.52
2019-03-24T08:46:32.754Z,1023.26
2019-03-24T08:47:34.168Z,1023.15
2019-03-24T08:48:40.764Z,1022.54
2019-03-24T08:49:36.950Z,1021.91
2019-03-24T08:50:38.358Z,1022.57
2019-03-24T08:51:39.772Z,1025.16
2019-03-24T08:52:41.193Z,1023.89
2019-03-24T08:53:42.590Z,1024.22
2019-03-24T08:54:44.008Z,1023.32
2019-03-24T08:55:45.420Z,1023.70
2019-03-24T08:56:46.830Z,1023.51
2019-03-24T08:57:48.237Z,1025.02
2019-03-24T08:58:49.659Z,1024.71
2019-03-24T08:59:51.074Z,1024.09
2019-03-24T09:00:52.483Z,1025.41
2019-03-24T09:01:54.012Z,1026.17
2019-03-24T09:02:55.439Z,1025.88
2019-03-24T09:03:56.850Z,1023.81
2019-03-24T09:04:58.277Z,1022.61
2019-03-24T09:05:59.712Z,1022.03
2019-03-24T09:07:01.234Z,1021.78
2019-03-24T09:08:02.729Z,1021.86
2019-03-24T09:09:04.224Z,1022.22
2019-03-24T09:10:05.646Z,1022.60
2019-03-24T09:11:07.052Z,1022.70
2019-03-24T09:12:08.474Z,1022.22
2019-03-24T09:13:09.918Z,1022.11
2019-03-24T09:14:11.329Z,1022.16
2019-03-24T09:15:12.768Z,1021.97
2019-03-24T09:16:14.469Z,1021.96
2019-03-24T09:17:15.874Z,1021.66
2019-03-24T09:18:17.294Z,1021.60
2019-03-24T09:19:18.715Z,1021.53
2019-03-24T09:20:20.139Z,1021.49
2019-03-24T09:21:21.549Z,1021.47
2019-03-24T09:22:22.977Z,1021.61
2019-03-24T09:23:24.394Z,1021.55
2019-03-24T09:24:25.869Z,1021.47
2019-03-24T09:25:27.338Z,1021.40
2019-03-24T09:26:28.739Z,1021.48
2019-03-24T09:27:30.173Z,1021.50
2019-03-24T09:28:31.581Z,1021.44
2019-03-24T09:29:33.024Z,1021.53
2019-03-24T09:30:34.469Z,1021.76
2019-03-24T09:31:35.898Z,1021.66
2019-03-24T09:32:37.310Z,1021.69
2019-03-24T09:33:38.720Z,1021.34
2019-03-24T09:34:40.602Z,1021.21
2019-03-24T09:35:41.644Z,1021.17
2019-03-24T09:36:43.055Z,1020.98
2019-03-24T09:37:44.556Z,1020.90
2019-03-24T09:38:45.957Z,1020.80
2019-03-24T09:39:47.376Z,1020.79
2019-03-24T09:40:48.777Z,1020.75
2019-03-24T09:41:50.269Z,1020.69
2019-03-24T09:42:51.906Z,1020.60
2019-03-24T09:43:53.350Z,1020.54
2019-03-24T09:44:54.750Z,1020.59
2019-03-24T09:45:56.406Z,1020.51
2019-03-24T09:46:57.678Z,1020.44
2019-03-24T09:47:59.106Z,1020.48
2019-03-24T09:49:03.304Z,1020.56
2019-03-24T09:50:01.914Z,1020.37
2019-03-24T09:51:03.590Z,1020.31
2019-03-24T09:52:04.983Z,1020.29
2019-03-24T09:53:06.707Z,1020.28
2019-03-24T09:54:08.326Z,1020.21
2019-03-24T09:55:10.035Z,1020.24
2019-03-24T09:56:11.801Z,1020.18
2019-03-24T09:57:13.458Z,1020.07
2019-03-24T09:58:15.205Z,1020.07
2019-03-24T09:59:17.071Z,1020.01
2019-03-24T10:00:18.812Z,1019.99
2019-03-24T10:01:20.525Z,1019.97
2019-03-24T10:02:22.114Z,1020.01
2019-03-24T10:03:23.809Z,1020.01
2019-03-24T10:04:25.617Z,1020.05
2019-03-24T10:05:27.021Z,1020.19
2019-03-24T10:06:28.705Z,1020.37
2019-03-24T10:07:30.299Z,1020.30
2019-03-24T10:08:31.778Z,1020.21
2019-03-24T10:09:33.435Z,1020.15
2019-03-24T10:10:35.508Z,1020.22
2019-03-24T10:11:37.188Z,1020.21
2019-03-24T10:12:38.963Z,1020.17
2019-03-24T10:13:40.857Z,1020.63
2019-03-24T10:14:42.508Z,1020.23
2019-03-24T10:15:44.221Z,1020.26
2019-03-24T10:16:45.907Z,1020.27
2019-03-24T10:17:47.540Z,1020.37
2019-03-24T10:18:49.175Z,1020.16
2019-03-24T10:19:50.591Z,1020.22
2019-03-24T10:20:52.026Z,1020.17
2019-03-24T10:21:53.434Z,1020.27
2019-03-24T10:22:54.854Z,1020.18
2019-03-24T10:23:56.263Z,1020.32
2019-03-24T10:24:57.664Z,1020.23
2019-03-24T10:25:59.069Z,1020.21
2019-03-24T10:27:00.503Z,1020.11
2019-03-24T10:28:01.934Z,1020.13
2019-03-24T10:29:03.349Z,1020.17
2019-03-24T10:30:04.757Z,1020.08
2019-03-24T10:31:06.181Z,1019.93
2019-03-24T10:32:07.601Z,1019.91
2019-03-24T10:33:09.005Z,1019.87
2019-03-24T10:34:10.579Z,1019.75
2019-03-24T10:35:11.986Z,1019.77
2019-03-24T10:36:13.406Z,1019.79
2019-03-24T10:37:14.816Z,1019.74
2019-03-24T10:38:16.260Z,1019.66
2019-03-24T10:39:17.665Z,1019.61
2019-03-24T10:40:28.191Z,1019.60
2019-03-24T10:41:20.434Z,1019.64
2019-03-24T10:42:21.836Z,1019.66
2019-03-24T10:43:23.250Z,1019.74
2019-03-24T10:44:24.647Z,1019.78
2019-03-24T10:45:26.060Z,1019.76
2019-03-24T10:46:27.489Z,1019.74
2019-03-24T10:47:28.903Z,1019.73
2019-03-24T10:48:33.904Z,1019.61
2019-03-24T10:49:31.667Z,1019.49
2019-03-24T10:50:33.090Z,1019.50
2019-03-24T10:51:34.509Z,1019.44
2019-03-24T10:52:35.925Z,1019.36
2019-03-24T10:53:37.317Z,1019.36
2019-03-24T10:54:38.723Z,1019.31
2019-03-24T10:55:40.133Z,1019.24
2019-03-24T10:56:41.535Z,1019.23
2019-03-24T10:57:42.950Z,1019.22
2019-03-24T10:58:44.353Z,1019.13
2019-03-24T10:59:45.762Z,1019.08
2019-03-24T11:00:47.165Z,1019.02
2019-03-24T11:01:48.553Z,1018.99
2019-03-24T11:02:49.959Z,1018.96
2019-03-24T11:03:51.366Z,1018.93
2019-03-24T11:04:52.761Z,1018.90
2019-03-24T11:05:54.172Z,1018.99
2019-03-24T11:06:55.560Z,1018.95
2019-03-24T11:07:56.959Z,1018.92
2019-03-24T11:08:58.357Z,1018.92
2019-03-24T11:09:59.780Z,1018.96
2019-03-24T11:11:01.176Z,1018.94
2019-03-24T11:12:02.566Z,1018.95
2019-03-24T11:13:03.973Z,1018.87
2019-03-24T11:14:05.379Z,1018.87
2019-03-24T11:15:06.778Z,1018.90
2019-03-24T11:16:08.180Z,1018.87
2019-03-24T11:17:09.579Z,1018.90
2019-03-24T11:18:10.982Z,1018.90
2019-03-24T11:19:12.377Z,1018.85
2019-03-24T11:20:13.773Z,1018.89
2019-03-24T11:21:15.177Z,1018.90
2019-03-24T11:22:16.578Z,1018.86
2019-03-24T11:23:17.982Z,1018.85
2019-03-24T11:24:19.385Z,1018.86
2019-03-24T11:25:20.786Z,1018.81
2019-03-24T11:26:22.188Z,1018.77
2019-03-24T11:27:23.613Z,1018.75
2019-03-24T11:28:24.998Z,1018.74
2019-03-24T11:29:26.400Z,1018.72
2019-03-24T11:30:27.803Z,1018.74
2019-03-24T11:31:29.209Z,1018.75
2019-03-24T11:32:30.606Z,1018.77
2019-03-24T11:33:32.004Z,1018.74
2019-03-24T11:34:33.397Z,1018.73
2019-03-24T11:35:34.805Z,1018.70
2019-03-24T11:36:36.207Z,1018.64
2019-03-24T11:37:37.609Z,1018.56
2019-03-24T11:38:39.009Z,1018.53
2019-03-24T11:39:40.425Z,1018.52
2019-03-24T11:40:41.817Z,1018.47
2019-03-24T11:41:43.214Z,1018.45
2019-03-24T11:42:44.627Z,1018.44
2019-03-24T11:43:46.017Z,1018.43
2019-03-24T11:44:47.416Z,1018.41
2019-03-24T11:45:48.816Z,1018.41
2019-03-24T11:46:50.209Z,1018.40
2019-03-24T11:47:51.610Z,1018.43
2019-03-24T11:48:53.007Z,1018.40
2019-03-24T11:49:54.403Z,1018.40
2019-03-24T11:50:55.792Z,1018.36
2019-03-24T11:51:57.219Z,1018.35
2019-03-24T11:52:58.609Z,1018.39
2019-03-24T11:54:00.008Z,1018.30
2019-03-24T11:55:01.420Z,1018.32
2019-03-24T11:56:02.810Z,1018.27
2019-03-24T11:57:04.210Z,1018.28
2019-03-24T11:58:06.233Z,1018.25
2019-03-24T11:59:06.977Z,1018.21
2019-03-24T12:00:08.376Z,1018.20
2019-03-24T12:01:09.769Z,1018.16
2019-03-24T12:02:11.168Z,1018.16
2019-03-24T12:03:12.558Z,1018.13
2019-03-24T12:04:13.970Z,1018.16
2019-03-24T12:05:15.382Z,1018.09
2019-03-24T12:06:16.781Z,1018.09
2019-03-24T12:07:18.185Z,1018.04
2019-03-24T12:08:19.586Z,1018.05
2019-03-24T12:09:20.981Z,1018.00
2019-03-24T12:10:22.376Z,1017.90
2019-03-24T12:11:23.765Z,1017.87
2019-03-24T12:12:25.179Z,1017.87
2019-03-24T12:13:26.581Z,1017.85
2019-03-24T12:14:27.979Z,1017.84
2019-03-24T12:15:29.375Z,1017.81
2019-03-24T12:16:30.863Z,1017.81
2019-03-24T12:17:32.271Z,1017.81
2019-03-24T12:18:33.661Z,1017.80
2019-03-24T12:19:35.065Z,1017.76
2019-03-24T12:20:36.461Z,1017.75
2019-03-24T12:21:37.858Z,1017.76
2019-03-24T12:22:39.263Z,1017.75